sensor_id;sensor_type;location;lat;lon;timestamp;P1;durP1;ratioP1;P2;durP2;ratioP2
45842;SDS011;31563;51.744;8.252;2023-03-05T00:01:26;3.70;;;0.77;;
45842;SDS011;31563;51.744;8.252;2023-03-05T00:03:55;2.35;;;1.10;;
45842;SDS011;31563;51.744;8.252;2023-03-05T00:06:26;2.47;;;0.80;;
45842;SDS011;31563;51.744;8.252;2023-03-05T00:08:56;3.55;;;1.25;;
45842;SDS011;31563;51.744;8.252;2023-03-05T00:11:25;2.42;;;0.93;;
45842;SDS011;31563;51.744;8.252;2023-03-05T00:13:55;5.60;;;2.08;;
45842;SDS011;31563;51.744;8.252;2023-03-05T00:16:24;3.83;;;1.40;;
45842;SDS011;31563;51.744;8.252;2023-03-05T00:18:54;5.57;;;1.47;;
45842;SDS011;31563;51.744;8.252;2023-03-05T00:21:24;3.25;;;0.90;;
45842;SDS011;31563;51.744;8.252;2023-03-05T00:23:55;4.20;;;1.35;;
45842;SDS011;31563;51.744;8.252;2023-03-05T00:26:26;3.28;;;1.10;;
45842;SDS011;31563;51.744;8.252;2023-03-05T00:28:55;3.78;;;1.20;;
45842;SDS011;31563;51.744;8.252;2023-03-05T00:31:25;3.93;;;1.00;;
45842;SDS011;31563;51.744;8.252;2023-03-05T00:33:57;4.07;;;1.30;;
45842;SDS011;31563;51.744;8.252;2023-03-05T00:36:28;3.50;;;1.00;;
45842;SDS011;31563;51.744;8.252;2023-03-05T00:38:57;4.35;;;1.20;;
45842;SDS011;31563;51.744;8.252;2023-03-05T00:41:25;3.53;;;1.25;;
45842;SDS011;31563;51.744;8.252;2023-03-05T00:43:54;4.93;;;1.52;;
45842;SDS011;31563;51.744;8.252;2023-03-05T00:46:22;3.25;;;1.08;;
45842;SDS011;31563;51.744;8.252;2023-03-05T00:48:52;3.05;;;1.13;;
45842;SDS011;31563;51.744;8.252;2023-03-05T00:51:21;2.97;;;1.17;;
45842;SDS011;31563;51.744;8.252;2023-03-05T00:53:51;3.08;;;1.10;;
45842;SDS011;31563;51.744;8.252;2023-03-05T00:56:19;2.60;;;0.93;;
45842;SDS011;31563;51.744;8.252;2023-03-05T00:58:47;2.88;;;1.08;;
45842;SDS011;31563;51.744;8.252;2023-03-05T01:01:16;2.97;;;0.88;;
45842;SDS011;31563;51.744;8.252;2023-03-05T01:03:44;3.60;;;1.10;;
45842;SDS011;31563;51.744;8.252;2023-03-05T01:06:13;1.98;;;1.13;;
45842;SDS011;31563;51.744;8.252;2023-03-05T01:08:42;2.38;;;0.85;;
45842;SDS011;31563;51.744;8.252;2023-03-05T01:11:12;3.22;;;0.90;;
45842;SDS011;31563;51.744;8.252;2023-03-05T01:13:40;4.53;;;1.20;;
45842;SDS011;31563;51.744;8.252;2023-03-05T01:16:08;2.03;;;0.80;;
45842;SDS011;31563;51.744;8.252;2023-03-05T01:18:37;1.75;;;0.70;;
45842;SDS011;31563;51.744;8.252;2023-03-05T01:21:06;2.75;;;1.05;;
45842;SDS011;31563;51.744;8.252;2023-03-05T01:23:34;2.58;;;0.90;;
45842;SDS011;31563;51.744;8.252;2023-03-05T01:26:03;3.75;;;1.17;;
45842;SDS011;31563;51.744;8.252;2023-03-05T01:28:33;2.22;;;0.90;;
45842;SDS011;31563;51.744;8.252;2023-03-05T01:31:05;2.97;;;1.00;;
45842;SDS011;31563;51.744;8.252;2023-03-05T01:33:35;2.17;;;0.70;;
45842;SDS011;31563;51.744;8.252;2023-03-05T01:36:05;3.17;;;1.02;;
45842;SDS011;31563;51.744;8.252;2023-03-05T01:38:35;2.45;;;0.93;;
45842;SDS011;31563;51.744;8.252;2023-03-05T01:41:03;2.97;;;1.13;;
45842;SDS011;31563;51.744;8.252;2023-03-05T01:43:33;2.70;;;1.05;;
45842;SDS011;31563;51.744;8.252;2023-03-05T01:46:16;2.17;;;0.80;;
45842;SDS011;31563;51.744;8.252;2023-03-05T01:49:00;1.88;;;0.75;;
45842;SDS011;31563;51.744;8.252;2023-03-05T01:51:32;3.03;;;0.82;;
45842;SDS011;31563;51.744;8.252;2023-03-05T01:54:04;2.50;;;0.90;;
45842;SDS011;31563;51.744;8.252;2023-03-05T01:56:35;3.45;;;1.05;;
45842;SDS011;31563;51.744;8.252;2023-03-05T02:01:37;2.55;;;0.90;;
45842;SDS011;31563;51.744;8.252;2023-03-05T02:04:09;2.40;;;0.85;;
45842;SDS011;31563;51.744;8.252;2023-03-05T02:06:40;1.70;;;0.70;;
45842;SDS011;31563;51.744;8.252;2023-03-05T02:09:10;3.15;;;0.70;;
45842;SDS011;31563;51.744;8.252;2023-03-05T02:11:38;3.33;;;0.90;;
45842;SDS011;31563;51.744;8.252;2023-03-05T02:14:09;1.97;;;0.80;;
45842;SDS011;31563;51.744;8.252;2023-03-05T02:16:37;1.80;;;0.90;;
45842;SDS011;31563;51.744;8.252;2023-03-05T02:19:06;2.80;;;0.75;;
45842;SDS011;31563;51.744;8.252;2023-03-05T02:21:39;2.45;;;0.82;;
45842;SDS011;31563;51.744;8.252;2023-03-05T02:24:10;3.03;;;0.88;;
45842;SDS011;31563;51.744;8.252;2023-03-05T02:26:39;1.67;;;0.73;;
45842;SDS011;31563;51.744;8.252;2023-03-05T02:29:08;2.27;;;1.00;;
45842;SDS011;31563;51.744;8.252;2023-03-05T02:31:39;2.45;;;0.95;;
45842;SDS011;31563;51.744;8.252;2023-03-05T02:34:07;2.17;;;0.73;;
45842;SDS011;31563;51.744;8.252;2023-03-05T02:36:35;2.50;;;1.05;;
45842;SDS011;31563;51.744;8.252;2023-03-05T02:39:05;1.55;;;0.68;;
45842;SDS011;31563;51.744;8.252;2023-03-05T02:41:34;2.00;;;0.90;;
45842;SDS011;31563;51.744;8.252;2023-03-05T02:44:03;2.47;;;0.80;;
45842;SDS011;31563;51.744;8.252;2023-03-05T02:46:31;2.60;;;0.70;;
45842;SDS011;31563;51.744;8.252;2023-03-05T02:48:59;2.38;;;0.80;;
45842;SDS011;31563;51.744;8.252;2023-03-05T02:51:28;3.15;;;1.00;;
45842;SDS011;31563;51.744;8.252;2023-03-05T02:53:56;2.08;;;0.77;;
45842;SDS011;31563;51.744;8.252;2023-03-05T02:56:26;2.22;;;0.68;;
45842;SDS011;31563;51.744;8.252;2023-03-05T02:58:54;2.03;;;0.40;;
45842;SDS011;31563;51.744;8.252;2023-03-05T03:01:22;2.75;;;0.77;;
45842;SDS011;31563;51.744;8.252;2023-03-05T03:03:53;2.10;;;0.77;;
45842;SDS011;31563;51.744;8.252;2023-03-05T03:06:21;2.60;;;0.75;;
45842;SDS011;31563;51.744;8.252;2023-03-05T03:08:49;2.75;;;0.68;;
45842;SDS011;31563;51.744;8.252;2023-03-05T03:11:17;1.33;;;0.63;;
45842;SDS011;31563;51.744;8.252;2023-03-05T03:13:48;2.10;;;0.73;;
45842;SDS011;31563;51.744;8.252;2023-03-05T03:16:16;2.40;;;0.77;;
45842;SDS011;31563;51.744;8.252;2023-03-05T03:18:44;4.13;;;1.42;;
45842;SDS011;31563;51.744;8.252;2023-03-05T03:21:17;3.22;;;0.88;;
45842;SDS011;31563;51.744;8.252;2023-03-05T03:23:46;2.13;;;0.68;;
45842;SDS011;31563;51.744;8.252;2023-03-05T03:26:15;3.35;;;0.70;;
45842;SDS011;31563;51.744;8.252;2023-03-05T03:28:43;3.83;;;1.05;;
45842;SDS011;31563;51.744;8.252;2023-03-05T03:31:13;6.22;;;2.03;;
45842;SDS011;31563;51.744;8.252;2023-03-05T03:33:42;5.88;;;2.00;;
45842;SDS011;31563;51.744;8.252;2023-03-05T03:36:10;5.35;;;2.10;;
45842;SDS011;31563;51.744;8.252;2023-03-05T03:38:39;6.22;;;1.65;;
45842;SDS011;31563;51.744;8.252;2023-03-05T03:41:07;2.80;;;1.35;;
45842;SDS011;31563;51.744;8.252;2023-03-05T03:43:36;4.90;;;1.42;;
45842;SDS011;31563;51.744;8.252;2023-03-05T03:46:04;4.55;;;1.33;;
45842;SDS011;31563;51.744;8.252;2023-03-05T03:48:34;5.00;;;1.85;;
45842;SDS011;31563;51.744;8.252;2023-03-05T03:51:03;4.93;;;1.23;;
45842;SDS011;31563;51.744;8.252;2023-03-05T03:53:33;3.30;;;1.33;;
45842;SDS011;31563;51.744;8.252;2023-03-05T03:56:01;2.53;;;1.20;;
45842;SDS011;31563;51.744;8.252;2023-03-05T03:58:30;5.63;;;1.50;;
45842;SDS011;31563;51.744;8.252;2023-03-05T04:00:58;3.47;;;1.40;;
45842;SDS011;31563;51.744;8.252;2023-03-05T04:03:26;3.50;;;1.42;;
45842;SDS011;31563;51.744;8.252;2023-03-05T04:05:56;4.35;;;1.15;;
45842;SDS011;31563;51.744;8.252;2023-03-05T04:08:24;3.00;;;1.13;;
45842;SDS011;31563;51.744;8.252;2023-03-05T04:10:52;3.80;;;1.27;;
45842;SDS011;31563;51.744;8.252;2023-03-05T04:13:21;2.85;;;1.08;;
45842;SDS011;31563;51.744;8.252;2023-03-05T04:15:49;3.65;;;1.10;;
45842;SDS011;31563;51.744;8.252;2023-03-05T04:18:17;3.65;;;1.33;;
45842;SDS011;31563;51.744;8.252;2023-03-05T04:20:45;5.38;;;1.23;;
45842;SDS011;31563;51.744;8.252;2023-03-05T04:23:15;3.97;;;1.13;;
45842;SDS011;31563;51.744;8.252;2023-03-05T04:25:44;3.90;;;1.40;;
45842;SDS011;31563;51.744;8.252;2023-03-05T04:28:12;3.13;;;1.30;;
45842;SDS011;31563;51.744;8.252;2023-03-05T04:30:40;3.75;;;1.42;;
45842;SDS011;31563;51.744;8.252;2023-03-05T04:33:08;3.03;;;1.00;;
45842;SDS011;31563;51.744;8.252;2023-03-05T04:35:36;3.30;;;1.30;;
45842;SDS011;31563;51.744;8.252;2023-03-05T04:38:05;3.42;;;1.00;;
45842;SDS011;31563;51.744;8.252;2023-03-05T04:40:34;3.35;;;1.27;;
45842;SDS011;31563;51.744;8.252;2023-03-05T04:43:03;2.63;;;1.00;;
45842;SDS011;31563;51.744;8.252;2023-03-05T04:45:31;3.33;;;1.20;;
45842;SDS011;31563;51.744;8.252;2023-03-05T04:48:00;4.05;;;1.40;;
45842;SDS011;31563;51.744;8.252;2023-03-05T04:50:28;2.55;;;1.10;;
45842;SDS011;31563;51.744;8.252;2023-03-05T04:52:56;4.47;;;1.40;;
45842;SDS011;31563;51.744;8.252;2023-03-05T04:55:26;2.33;;;1.00;;
45842;SDS011;31563;51.744;8.252;2023-03-05T04:57:55;3.13;;;1.02;;
45842;SDS011;31563;51.744;8.252;2023-03-05T05:00:24;2.10;;;0.80;;
45842;SDS011;31563;51.744;8.252;2023-03-05T05:02:52;2.35;;;0.85;;
45842;SDS011;31563;51.744;8.252;2023-03-05T05:05:22;2.60;;;1.35;;
45842;SDS011;31563;51.744;8.252;2023-03-05T05:07:53;2.47;;;0.90;;
45842;SDS011;31563;51.744;8.252;2023-03-05T05:10:22;1.88;;;0.88;;
45842;SDS011;31563;51.744;8.252;2023-03-05T05:12:51;3.42;;;1.08;;
45842;SDS011;31563;51.744;8.252;2023-03-05T05:15:21;3.55;;;0.95;;
45842;SDS011;31563;51.744;8.252;2023-03-05T05:17:49;3.20;;;1.00;;
45842;SDS011;31563;51.744;8.252;2023-03-05T05:20:18;2.40;;;1.00;;
45842;SDS011;31563;51.744;8.252;2023-03-05T05:22:46;2.50;;;1.02;;
45842;SDS011;31563;51.744;8.252;2023-03-05T05:25:14;3.15;;;1.00;;
45842;SDS011;31563;51.744;8.252;2023-03-05T05:27:42;3.28;;;1.10;;
45842;SDS011;31563;51.744;8.252;2023-03-05T05:30:11;2.70;;;1.30;;
45842;SDS011;31563;51.744;8.252;2023-03-05T05:32:41;3.33;;;1.17;;
45842;SDS011;31563;51.744;8.252;2023-03-05T05:35:09;2.70;;;0.90;;
45842;SDS011;31563;51.744;8.252;2023-03-05T05:37:38;2.92;;;1.13;;
45842;SDS011;31563;51.744;8.252;2023-03-05T05:40:07;2.35;;;0.90;;
45842;SDS011;31563;51.744;8.252;2023-03-05T05:42:36;2.17;;;1.02;;
45842;SDS011;31563;51.744;8.252;2023-03-05T05:45:05;3.28;;;0.95;;
45842;SDS011;31563;51.744;8.252;2023-03-05T05:47:34;3.50;;;1.05;;
45842;SDS011;31563;51.744;8.252;2023-03-05T05:50:04;2.72;;;1.05;;
45842;SDS011;31563;51.744;8.252;2023-03-05T05:52:33;2.03;;;0.80;;
45842;SDS011;31563;51.744;8.252;2023-03-05T05:55:01;2.53;;;0.98;;
45842;SDS011;31563;51.744;8.252;2023-03-05T05:57:29;1.67;;;0.73;;
45842;SDS011;31563;51.744;8.252;2023-03-05T05:59:57;1.23;;;0.60;;
45842;SDS011;31563;51.744;8.252;2023-03-05T06:02:26;2.75;;;1.00;;
45842;SDS011;31563;51.744;8.252;2023-03-05T06:04:55;1.52;;;0.82;;
45842;SDS011;31563;51.744;8.252;2023-03-05T06:07:25;1.75;;;0.70;;
45842;SDS011;31563;51.744;8.252;2023-03-05T06:09:53;2.00;;;0.90;;
45842;SDS011;31563;51.744;8.252;2023-03-05T06:12:21;2.28;;;0.70;;
45842;SDS011;31563;51.744;8.252;2023-03-05T06:14:49;2.50;;;0.90;;
45842;SDS011;31563;51.744;8.252;2023-03-05T06:17:19;2.60;;;0.65;;
45842;SDS011;31563;51.744;8.252;2023-03-05T06:19:56;1.73;;;0.70;;
45842;SDS011;31563;51.744;8.252;2023-03-05T06:22:25;2.28;;;0.95;;
45842;SDS011;31563;51.744;8.252;2023-03-05T06:24:53;1.98;;;0.80;;
45842;SDS011;31563;51.744;8.252;2023-03-05T06:27:22;1.80;;;0.82;;
45842;SDS011;31563;51.744;8.252;2023-03-05T06:29:51;1.65;;;0.80;;
45842;SDS011;31563;51.744;8.252;2023-03-05T06:32:22;2.38;;;1.05;;
45842;SDS011;31563;51.744;8.252;2023-03-05T06:34:50;1.88;;;0.75;;
45842;SDS011;31563;51.744;8.252;2023-03-05T06:37:19;2.88;;;0.90;;
45842;SDS011;31563;51.744;8.252;2023-03-05T06:39:48;2.80;;;1.08;;
45842;SDS011;31563;51.744;8.252;2023-03-05T06:42:17;2.10;;;0.63;;
45842;SDS011;31563;51.744;8.252;2023-03-05T06:44:45;3.65;;;0.75;;
45842;SDS011;31563;51.744;8.252;2023-03-05T06:47:13;2.05;;;0.90;;
45842;SDS011;31563;51.744;8.252;2023-03-05T06:49:41;2.45;;;0.80;;
45842;SDS011;31563;51.744;8.252;2023-03-05T06:52:10;1.45;;;0.75;;
45842;SDS011;31563;51.744;8.252;2023-03-05T06:54:38;1.38;;;0.68;;
45842;SDS011;31563;51.744;8.252;2023-03-05T06:57:08;2.25;;;0.93;;
45842;SDS011;31563;51.744;8.252;2023-03-05T06:59:37;1.35;;;0.80;;
45842;SDS011;31563;51.744;8.252;2023-03-05T07:02:07;2.17;;;0.88;;
45842;SDS011;31563;51.744;8.252;2023-03-05T07:04:37;2.38;;;0.80;;
45842;SDS011;31563;51.744;8.252;2023-03-05T07:07:05;1.55;;;0.75;;
45842;SDS011;31563;51.744;8.252;2023-03-05T07:09:33;2.75;;;1.10;;
45842;SDS011;31563;51.744;8.252;2023-03-05T07:12:09;1.98;;;0.80;;
45842;SDS011;31563;51.744;8.252;2023-03-05T07:17:06;2.40;;;1.13;;
45842;SDS011;31563;51.744;8.252;2023-03-05T07:19:34;1.85;;;0.80;;
45842;SDS011;31563;51.744;8.252;2023-03-05T07:22:02;1.55;;;0.70;;
45842;SDS011;31563;51.744;8.252;2023-03-05T07:24:32;1.70;;;0.70;;
45842;SDS011;31563;51.744;8.252;2023-03-05T07:27:01;1.50;;;0.60;;
45842;SDS011;31563;51.744;8.252;2023-03-05T07:29:30;1.73;;;0.80;;
45842;SDS011;31563;51.744;8.252;2023-03-05T07:31:59;1.33;;;0.70;;
45842;SDS011;31563;51.744;8.252;2023-03-05T07:34:27;1.95;;;0.85;;
45842;SDS011;31563;51.744;8.252;2023-03-05T07:36:55;1.08;;;0.70;;
45842;SDS011;31563;51.744;8.252;2023-03-05T07:39:23;2.75;;;0.90;;
45842;SDS011;31563;51.744;8.252;2023-03-05T07:41:52;1.45;;;0.90;;
45842;SDS011;31563;51.744;8.252;2023-03-05T07:44:20;1.60;;;1.00;;
45842;SDS011;31563;51.744;8.252;2023-03-05T07:46:50;2.15;;;0.90;;
45842;SDS011;31563;51.744;8.252;2023-03-05T07:49:18;1.58;;;1.00;;
45842;SDS011;31563;51.744;8.252;2023-03-05T07:51:46;1.85;;;0.82;;
45842;SDS011;31563;51.744;8.252;2023-03-05T07:54:14;1.83;;;0.90;;
45842;SDS011;31563;51.744;8.252;2023-03-05T07:56:42;2.38;;;0.90;;
45842;SDS011;31563;51.744;8.252;2023-03-05T07:59:11;2.13;;;1.10;;
45842;SDS011;31563;51.744;8.252;2023-03-05T08:01:40;1.60;;;1.00;;
45842;SDS011;31563;51.744;8.252;2023-03-05T08:04:09;1.70;;;0.98;;
45842;SDS011;31563;51.744;8.252;2023-03-05T08:09:07;1.23;;;0.60;;
45842;SDS011;31563;51.744;8.252;2023-03-05T08:11:35;1.70;;;0.95;;
45842;SDS011;31563;51.744;8.252;2023-03-05T08:14:03;1.23;;;0.70;;
45842;SDS011;31563;51.744;8.252;2023-03-05T08:16:32;1.55;;;0.70;;
45842;SDS011;31563;51.744;8.252;2023-03-05T08:19:00;2.05;;;0.85;;
45842;SDS011;31563;51.744;8.252;2023-03-05T08:21:31;2.33;;;1.02;;
45842;SDS011;31563;51.744;8.252;2023-03-05T08:24:01;2.08;;;0.98;;
45842;SDS011;31563;51.744;8.252;2023-03-05T08:28:59;2.05;;;1.00;;
45842;SDS011;31563;51.744;8.252;2023-03-05T08:31:29;1.90;;;0.73;;
45842;SDS011;31563;51.744;8.252;2023-03-05T08:33:58;1.40;;;0.83;;
45842;SDS011;31563;51.744;8.252;2023-03-05T08:38:57;1.27;;;0.73;;
45842;SDS011;31563;51.744;8.252;2023-03-05T08:41:26;2.17;;;1.00;;
45842;SDS011;31563;51.744;8.252;2023-03-05T08:43:54;1.17;;;0.68;;
45842;SDS011;31563;51.744;8.252;2023-03-05T08:46:23;2.03;;;0.98;;
45842;SDS011;31563;51.744;8.252;2023-03-05T08:48:51;2.38;;;1.27;;
45842;SDS011;31563;51.744;8.252;2023-03-05T08:51:20;1.92;;;0.90;;
45842;SDS011;31563;51.744;8.252;2023-03-05T08:53:51;1.92;;;0.73;;
45842;SDS011;31563;51.744;8.252;2023-03-05T08:56:21;1.87;;;0.80;;
45842;SDS011;31563;51.744;8.252;2023-03-05T08:58:51;1.70;;;0.70;;
45842;SDS011;31563;51.744;8.252;2023-03-05T09:01:19;1.27;;;0.80;;
45842;SDS011;31563;51.744;8.252;2023-03-05T09:03:49;1.58;;;0.80;;
45842;SDS011;31563;51.744;8.252;2023-03-05T09:06:17;3.05;;;1.52;;
45842;SDS011;31563;51.744;8.252;2023-03-05T09:08:45;3.15;;;1.90;;
45842;SDS011;31563;51.744;8.252;2023-03-05T09:11:14;5.60;;;4.65;;
45842;SDS011;31563;51.744;8.252;2023-03-05T09:13:43;13.07;;;11.60;;
45842;SDS011;31563;51.744;8.252;2023-03-05T09:16:12;14.27;;;11.63;;
45842;SDS011;31563;51.744;8.252;2023-03-05T09:18:42;15.52;;;13.80;;
45842;SDS011;31563;51.744;8.252;2023-03-05T09:21:11;13.32;;;10.90;;
45842;SDS011;31563;51.744;8.252;2023-03-05T09:23:41;12.10;;;9.30;;
45842;SDS011;31563;51.744;8.252;2023-03-05T09:26:10;10.32;;;9.13;;
45842;SDS011;31563;51.744;8.252;2023-03-05T09:28:40;9.73;;;8.70;;
45842;SDS011;31563;51.744;8.252;2023-03-05T09:31:10;12.10;;;8.95;;
45842;SDS011;31563;51.744;8.252;2023-03-05T09:33:39;10.18;;;9.07;;
45842;SDS011;31563;51.744;8.252;2023-03-05T09:36:15;9.52;;;8.10;;
45842;SDS011;31563;51.744;8.252;2023-03-05T09:38:45;5.82;;;3.90;;
45842;SDS011;31563;51.744;8.252;2023-03-05T09:41:15;5.15;;;3.85;;
45842;SDS011;31563;51.744;8.252;2023-03-05T09:43:51;7.18;;;4.80;;
45842;SDS011;31563;51.744;8.252;2023-03-05T09:46:29;8.95;;;4.30;;
45842;SDS011;31563;51.744;8.252;2023-03-05T09:49:07;4.95;;;4.00;;
45842;SDS011;31563;51.744;8.252;2023-03-05T09:51:41;7.00;;;3.85;;
45842;SDS011;31563;51.744;8.252;2023-03-05T09:54:13;5.43;;;3.83;;
45842;SDS011;31563;51.744;8.252;2023-03-05T09:56:46;6.22;;;3.63;;
45842;SDS011;31563;51.744;8.252;2023-03-05T09:59:19;4.90;;;3.42;;
45842;SDS011;31563;51.744;8.252;2023-03-05T10:01:58;5.72;;;3.90;;
45842;SDS011;31563;51.744;8.252;2023-03-05T10:04:32;6.20;;;3.88;;
45842;SDS011;31563;51.744;8.252;2023-03-05T10:07:11;5.43;;;4.28;;
45842;SDS011;31563;51.744;8.252;2023-03-05T10:09:44;5.00;;;3.95;;
45842;SDS011;31563;51.744;8.252;2023-03-05T10:12:19;4.70;;;3.88;;
45842;SDS011;31563;51.744;8.252;2023-03-05T10:14:53;4.35;;;3.47;;
45842;SDS011;31563;51.744;8.252;2023-03-05T10:17:36;4.07;;;3.33;;
45842;SDS011;31563;51.744;8.252;2023-03-05T10:20:14;4.60;;;3.65;;
45842;SDS011;31563;51.744;8.252;2023-03-05T10:23:10;4.10;;;3.70;;
45842;SDS011;31563;51.744;8.252;2023-03-05T10:25:55;4.72;;;3.30;;
45842;SDS011;31563;51.744;8.252;2023-03-05T10:28:32;5.03;;;3.45;;
45842;SDS011;31563;51.744;8.252;2023-03-05T10:31:17;4.28;;;3.38;;
45842;SDS011;31563;51.744;8.252;2023-03-05T10:34:00;6.22;;;3.47;;
45842;SDS011;31563;51.744;8.252;2023-03-05T10:36:54;4.10;;;3.20;;
45842;SDS011;31563;51.744;8.252;2023-03-05T10:39:38;5.55;;;3.40;;
45842;SDS011;31563;51.744;8.252;2023-03-05T10:42:30;3.88;;;3.20;;
45842;SDS011;31563;51.744;8.252;2023-03-05T10:45:11;4.15;;;3.25;;
45842;SDS011;31563;51.744;8.252;2023-03-05T10:47:43;3.58;;;3.10;;
45842;SDS011;31563;51.744;8.252;2023-03-05T10:50:18;3.95;;;3.10;;
45842;SDS011;31563;51.744;8.252;2023-03-05T10:52:50;4.75;;;3.35;;
45842;SDS011;31563;51.744;8.252;2023-03-05T10:55:25;4.13;;;3.17;;
45842;SDS011;31563;51.744;8.252;2023-03-05T10:57:54;4.15;;;3.00;;
45842;SDS011;31563;51.744;8.252;2023-03-05T11:00:23;3.22;;;2.80;;
45842;SDS011;31563;51.744;8.252;2023-03-05T11:02:57;4.45;;;2.88;;
45842;SDS011;31563;51.744;8.252;2023-03-05T11:08:26;3.00;;;2.70;;
45842;SDS011;31563;51.744;8.252;2023-03-05T11:11:01;2.95;;;2.55;;
45842;SDS011;31563;51.744;8.252;2023-03-05T11:13:42;3.67;;;2.70;;
45842;SDS011;31563;51.744;8.252;2023-03-05T11:16:19;3.05;;;2.60;;
45842;SDS011;31563;51.744;8.252;2023-03-05T11:18:48;2.78;;;2.30;;
45842;SDS011;31563;51.744;8.252;2023-03-05T11:21:20;2.67;;;2.45;;
45842;SDS011;31563;51.744;8.252;2023-03-05T11:24:02;2.65;;;2.30;;
45842;SDS011;31563;51.744;8.252;2023-03-05T11:26:32;4.90;;;2.30;;
45842;SDS011;31563;51.744;8.252;2023-03-05T11:29:01;3.17;;;2.33;;
45842;SDS011;31563;51.744;8.252;2023-03-05T11:31:30;2.63;;;2.22;;
45842;SDS011;31563;51.744;8.252;2023-03-05T11:34:00;3.33;;;2.20;;
45842;SDS011;31563;51.744;8.252;2023-03-05T11:36:32;2.50;;;2.20;;
45842;SDS011;31563;51.744;8.252;2023-03-05T11:39:08;2.50;;;2.28;;
45842;SDS011;31563;51.744;8.252;2023-03-05T11:41:38;2.63;;;2.35;;
45842;SDS011;31563;51.744;8.252;2023-03-05T11:44:10;2.25;;;1.98;;
45842;SDS011;31563;51.744;8.252;2023-03-05T11:46:43;2.38;;;2.03;;
45842;SDS011;31563;51.744;8.252;2023-03-05T11:49:14;2.97;;;2.40;;
45842;SDS011;31563;51.744;8.252;2023-03-05T11:51:50;2.58;;;2.25;;
45842;SDS011;31563;51.744;8.252;2023-03-05T11:54:25;3.30;;;2.30;;
45842;SDS011;31563;51.744;8.252;2023-03-05T11:56:59;6.13;;;2.22;;
45842;SDS011;31563;51.744;8.252;2023-03-05T12:01:58;3.17;;;2.05;;
45842;SDS011;31563;51.744;8.252;2023-03-05T12:04:27;3.63;;;2.47;;
45842;SDS011;31563;51.744;8.252;2023-03-05T12:07:00;2.60;;;1.95;;
45842;SDS011;31563;51.744;8.252;2023-03-05T12:09:31;3.17;;;2.10;;
45842;SDS011;31563;51.744;8.252;2023-03-05T12:12:08;3.35;;;2.05;;
45842;SDS011;31563;51.744;8.252;2023-03-05T12:14:44;2.95;;;1.92;;
45842;SDS011;31563;51.744;8.252;2023-03-05T12:17:19;1.92;;;1.73;;
45842;SDS011;31563;51.744;8.252;2023-03-05T12:19:50;2.85;;;1.92;;
45842;SDS011;31563;51.744;8.252;2023-03-05T12:22:26;3.25;;;1.70;;
45842;SDS011;31563;51.744;8.252;2023-03-05T12:27:54;3.78;;;1.95;;
45842;SDS011;31563;51.744;8.252;2023-03-05T12:33:29;2.78;;;1.63;;
45842;SDS011;31563;51.744;8.252;2023-03-05T12:45:28;1.75;;;1.40;;
45842;SDS011;31563;51.744;8.252;2023-03-05T12:51:03;2.88;;;1.48;;
45842;SDS011;31563;51.744;8.252;2023-03-05T12:53:31;2.80;;;1.55;;
45842;SDS011;31563;51.744;8.252;2023-03-05T12:56:01;2.15;;;1.40;;
45842;SDS011;31563;51.744;8.252;2023-03-05T12:58:41;2.05;;;1.42;;
45842;SDS011;31563;51.744;8.252;2023-03-05T13:06:36;2.05;;;0.98;;
45842;SDS011;31563;51.744;8.252;2023-03-05T13:09:07;2.08;;;1.30;;
45842;SDS011;31563;51.744;8.252;2023-03-05T13:11:43;2.53;;;0.82;;
45842;SDS011;31563;51.744;8.252;2023-03-05T13:14:25;2.03;;;0.77;;
45842;SDS011;31563;51.744;8.252;2023-03-05T13:16:58;3.17;;;0.80;;
45842;SDS011;31563;51.744;8.252;2023-03-05T13:19:26;5.85;;;1.40;;
45842;SDS011;31563;51.744;8.252;2023-03-05T13:24:25;3.28;;;1.27;;
45842;SDS011;31563;51.744;8.252;2023-03-05T13:26:54;1.55;;;1.05;;
45842;SDS011;31563;51.744;8.252;2023-03-05T13:29:24;4.70;;;0.90;;
45842;SDS011;31563;51.744;8.252;2023-03-05T13:31:56;2.03;;;1.10;;
45842;SDS011;31563;51.744;8.252;2023-03-05T13:34:27;2.88;;;0.80;;
45842;SDS011;31563;51.744;8.252;2023-03-05T13:37:14;2.28;;;0.75;;
45842;SDS011;31563;51.744;8.252;2023-03-05T13:39:46;1.90;;;0.85;;
45842;SDS011;31563;51.744;8.252;2023-03-05T13:42:16;1.77;;;0.70;;
45842;SDS011;31563;51.744;8.252;2023-03-05T13:44:53;1.10;;;0.60;;
45842;SDS011;31563;51.744;8.252;2023-03-05T13:47:23;1.38;;;0.70;;
45842;SDS011;31563;51.744;8.252;2023-03-05T13:49:54;1.65;;;0.80;;
45842;SDS011;31563;51.744;8.252;2023-03-05T13:52:25;2.80;;;0.70;;
45842;SDS011;31563;51.744;8.252;2023-03-05T13:54:55;1.65;;;0.70;;
45842;SDS011;31563;51.744;8.252;2023-03-05T13:57:34;1.05;;;0.70;;
45842;SDS011;31563;51.744;8.252;2023-03-05T14:00:06;1.52;;;0.65;;
45842;SDS011;31563;51.744;8.252;2023-03-05T14:02:53;1.20;;;0.50;;
45842;SDS011;31563;51.744;8.252;2023-03-05T14:05:25;0.63;;;0.40;;
45842;SDS011;31563;51.744;8.252;2023-03-05T14:07:53;0.70;;;0.30;;
45842;SDS011;31563;51.744;8.252;2023-03-05T14:10:27;1.23;;;0.60;;
45842;SDS011;31563;51.744;8.252;2023-03-05T14:12:57;1.38;;;0.60;;
45842;SDS011;31563;51.744;8.252;2023-03-05T14:15:31;1.30;;;0.43;;
45842;SDS011;31563;51.744;8.252;2023-03-05T14:18:07;0.80;;;0.55;;
45842;SDS011;31563;51.744;8.252;2023-03-05T14:20:56;1.88;;;0.50;;
45842;SDS011;31563;51.744;8.252;2023-03-05T14:23:33;1.17;;;0.50;;
45842;SDS011;31563;51.744;8.252;2023-03-05T14:26:16;1.30;;;0.40;;
45842;SDS011;31563;51.744;8.252;2023-03-05T14:28:57;0.60;;;0.40;;
45842;SDS011;31563;51.744;8.252;2023-03-05T14:31:29;0.88;;;0.45;;
45842;SDS011;31563;51.744;8.252;2023-03-05T14:33:59;2.17;;;0.52;;
45842;SDS011;31563;51.744;8.252;2023-03-05T14:36:30;1.23;;;0.40;;
45842;SDS011;31563;51.744;8.252;2023-03-05T14:41:31;1.30;;;0.50;;
45842;SDS011;31563;51.744;8.252;2023-03-05T14:44:07;1.98;;;0.60;;
45842;SDS011;31563;51.744;8.252;2023-03-05T14:46:40;1.77;;;0.57;;
45842;SDS011;31563;51.744;8.252;2023-03-05T14:49:09;1.27;;;0.65;;
45842;SDS011;31563;51.744;8.252;2023-03-05T14:51:38;1.63;;;0.40;;
45842;SDS011;31563;51.744;8.252;2023-03-05T14:54:16;1.25;;;0.55;;
45842;SDS011;31563;51.744;8.252;2023-03-05T14:56:46;0.98;;;0.52;;
45842;SDS011;31563;51.744;8.252;2023-03-05T14:59:15;1.43;;;0.40;;
45842;SDS011;31563;51.744;8.252;2023-03-05T15:01:45;0.75;;;0.40;;
45842;SDS011;31563;51.744;8.252;2023-03-05T15:04:15;1.50;;;0.60;;
45842;SDS011;31563;51.744;8.252;2023-03-05T15:06:45;1.58;;;0.63;;
45842;SDS011;31563;51.744;8.252;2023-03-05T15:09:16;1.30;;;0.60;;
45842;SDS011;31563;51.744;8.252;2023-03-05T15:11:46;1.40;;;0.50;;
45842;SDS011;31563;51.744;8.252;2023-03-05T15:14:15;1.37;;;0.37;;
45842;SDS011;31563;51.744;8.252;2023-03-05T15:16:44;0.95;;;0.30;;
45842;SDS011;31563;51.744;8.252;2023-03-05T15:19:14;0.90;;;0.32;;
45842;SDS011;31563;51.744;8.252;2023-03-05T15:21:43;0.70;;;0.30;;
45842;SDS011;31563;51.744;8.252;2023-03-05T15:24:11;1.20;;;0.50;;
45842;SDS011;31563;51.744;8.252;2023-03-05T15:26:40;1.48;;;0.35;;
45842;SDS011;31563;51.744;8.252;2023-03-05T15:29:08;1.30;;;0.47;;
45842;SDS011;31563;51.744;8.252;2023-03-05T15:31:36;1.55;;;0.30;;
45842;SDS011;31563;51.744;8.252;2023-03-05T15:34:07;1.10;;;0.50;;
45842;SDS011;31563;51.744;8.252;2023-03-05T15:39:03;1.70;;;0.60;;
45842;SDS011;31563;51.744;8.252;2023-03-05T15:41:31;2.55;;;0.73;;
45842;SDS011;31563;51.744;8.252;2023-03-05T15:44:00;2.58;;;0.75;;
45842;SDS011;31563;51.744;8.252;2023-03-05T15:46:28;2.45;;;0.90;;
45842;SDS011;31563;51.744;8.252;2023-03-05T15:51:27;2.85;;;0.75;;
45842;SDS011;31563;51.744;8.252;2023-03-05T15:56:23;3.15;;;0.55;;
45842;SDS011;31563;51.744;8.252;2023-03-05T15:58:51;3.10;;;0.85;;
45842;SDS011;31563;51.744;8.252;2023-03-05T16:01:19;2.47;;;0.82;;
45842;SDS011;31563;51.744;8.252;2023-03-05T16:03:48;3.65;;;0.60;;